Impacts TAF Board
For situational awareness. Not to be used for flight planning purposes.
IDs:

KZZV - Zanesville Muni, OH, US

Issued at 0704 UTC 07 Dec 2022
Updated at 0717 UTC 07 Dec 2022
Potential Impact None Slight Moderate High
Time<<07/20Z 07/21Z 07/22Z 07/23Z 08/00Z 08/01Z 08/02Z 08/03Z 08/04Z 08/05Z 08/06Z 08/07Z 08/08Z>>
Type PRVL PRVL PRVL PRVL PRVL PRVL PRVL PRVL PRVL PRVL
VIS 4 >6 >6 >6 >6 >6 >6 >6 >6 >6
CIG 4 7 7 7 7 7 7 10 10 10
Cover OVC OVC OVC OVC OVC OVC OVC OVC OVC OVC
FltCat LIFR IFR IFR IFR IFR IFR IFR MVFR MVFR MVFR
WX BR -- -- -- -- -- -- -- -- --
WDir 280 330 330 330 330 330 330 340 340 340
WSpd 5 5 5 5 5 5 5 3 3 3
WGst -- -- -- -- -- -- -- -- -- --
WSHgt -- -- -- -- -- -- -- -- -- --
WSDir -- -- -- -- -- -- -- -- -- --
WSSpd -- -- -- -- -- -- -- -- -- --
Raw TAF
KZZV 070704Z 0707/0806 00000KT 1SM -RA BR OVC006
  FM071300 00000KT 1SM -DZ BR OVC002
  FM071500 28005KT 4SM BR OVC004
  FM072100 33005KT P6SM OVC007
  FM080300 34003KT P6SM OVC010


METAR Board
Radar Display
Forecast Discussion
For situational awareness. Not to be used for flight planning purposes.